sensor_id;sensor_type;location;lat;lon;timestamp;P1;durP1;ratioP1;P2;durP2;ratioP2
55114;SDS011;41010;53.252;5.786;2023-06-19T00:01:31;8.45;;;4.85;;
55114;SDS011;41010;53.252;5.786;2023-06-19T00:03:58;6.68;;;4.40;;
55114;SDS011;41010;53.252;5.786;2023-06-19T00:06:25;5.88;;;4.82;;
55114;SDS011;41010;53.252;5.786;2023-06-19T00:08:53;5.80;;;4.20;;
55114;SDS011;41010;53.252;5.786;2023-06-19T00:11:22;5.35;;;4.20;;
55114;SDS011;41010;53.252;5.786;2023-06-19T00:13:49;5.45;;;4.30;;
55114;SDS011;41010;53.252;5.786;2023-06-19T00:16:16;6.15;;;4.45;;
55114;SDS011;41010;53.252;5.786;2023-06-19T00:18:44;4.95;;;4.28;;
55114;SDS011;41010;53.252;5.786;2023-06-19T00:21:11;5.03;;;4.10;;
55114;SDS011;41010;53.252;5.786;2023-06-19T00:23:38;4.50;;;3.80;;
55114;SDS011;41010;53.252;5.786;2023-06-19T00:26:06;10.38;;;4.07;;
55114;SDS011;41010;53.252;5.786;2023-06-19T00:28:34;6.25;;;3.88;;
55114;SDS011;41010;53.252;5.786;2023-06-19T00:31:06;5.68;;;3.97;;
55114;SDS011;41010;53.252;5.786;2023-06-19T00:33:33;4.90;;;3.90;;
55114;SDS011;41010;53.252;5.786;2023-06-19T00:36:01;4.43;;;3.47;;
55114;SDS011;41010;53.252;5.786;2023-06-19T00:38:28;6.78;;;3.80;;
55114;SDS011;41010;53.252;5.786;2023-06-19T00:40:55;5.47;;;4.18;;
55114;SDS011;41010;53.252;5.786;2023-06-19T00:43:22;5.80;;;4.43;;
55114;SDS011;41010;53.252;5.786;2023-06-19T00:45:51;6.10;;;4.30;;
55114;SDS011;41010;53.252;5.786;2023-06-19T00:48:18;5.97;;;4.10;;
55114;SDS011;41010;53.252;5.786;2023-06-19T00:50:46;5.70;;;4.05;;
55114;SDS011;41010;53.252;5.786;2023-06-19T00:53:13;7.50;;;4.20;;
55114;SDS011;41010;53.252;5.786;2023-06-19T00:55:40;5.32;;;4.10;;
55114;SDS011;41010;53.252;5.786;2023-06-19T00:58:08;6.57;;;4.28;;
55114;SDS011;41010;53.252;5.786;2023-06-19T01:00:36;5.13;;;3.80;;
55114;SDS011;41010;53.252;5.786;2023-06-19T01:03:04;6.05;;;3.85;;
55114;SDS011;41010;53.252;5.786;2023-06-19T01:05:31;5.13;;;3.70;;
55114;SDS011;41010;53.252;5.786;2023-06-19T01:08:00;5.22;;;3.88;;
55114;SDS011;41010;53.252;5.786;2023-06-19T01:10:35;4.57;;;3.50;;
55114;SDS011;41010;53.252;5.786;2023-06-19T01:13:06;4.30;;;3.45;;
55114;SDS011;41010;53.252;5.786;2023-06-19T01:15:35;5.07;;;3.70;;
55114;SDS011;41010;53.252;5.786;2023-06-19T01:18:02;5.85;;;3.30;;
55114;SDS011;41010;53.252;5.786;2023-06-19T01:20:31;4.55;;;3.53;;
55114;SDS011;41010;53.252;5.786;2023-06-19T01:23:06;5.65;;;3.55;;
55114;SDS011;41010;53.252;5.786;2023-06-19T01:25:33;6.38;;;3.78;;
55114;SDS011;41010;53.252;5.786;2023-06-19T01:28:00;5.30;;;3.47;;
55114;SDS011;41010;53.252;5.786;2023-06-19T01:30:29;4.95;;;3.60;;
55114;SDS011;41010;53.252;5.786;2023-06-19T01:32:58;6.65;;;3.92;;
55114;SDS011;41010;53.252;5.786;2023-06-19T01:35:27;5.80;;;3.30;;
55114;SDS011;41010;53.252;5.786;2023-06-19T01:37:54;6.10;;;3.90;;
55114;SDS011;41010;53.252;5.786;2023-06-19T01:40:24;7.68;;;4.20;;
55114;SDS011;41010;53.252;5.786;2023-06-19T01:42:53;5.15;;;3.80;;
55114;SDS011;41010;53.252;5.786;2023-06-19T01:45:20;5.20;;;3.67;;
55114;SDS011;41010;53.252;5.786;2023-06-19T01:47:47;5.78;;;3.80;;
55114;SDS011;41010;53.252;5.786;2023-06-19T01:50:14;4.20;;;3.72;;
55114;SDS011;41010;53.252;5.786;2023-06-19T01:52:43;8.10;;;3.70;;
55114;SDS011;41010;53.252;5.786;2023-06-19T01:55:10;5.60;;;3.92;;
55114;SDS011;41010;53.252;5.786;2023-06-19T01:57:39;5.75;;;4.20;;
55114;SDS011;41010;53.252;5.786;2023-06-19T02:00:07;7.57;;;4.13;;
55114;SDS011;41010;53.252;5.786;2023-06-19T02:02:35;4.63;;;3.70;;
55114;SDS011;41010;53.252;5.786;2023-06-19T02:05:02;6.85;;;3.80;;
55114;SDS011;41010;53.252;5.786;2023-06-19T02:07:30;6.20;;;3.70;;
55114;SDS011;41010;53.252;5.786;2023-06-19T02:09:57;5.20;;;3.70;;
55114;SDS011;41010;53.252;5.786;2023-06-19T02:12:24;6.05;;;3.67;;
55114;SDS011;41010;53.252;5.786;2023-06-19T02:14:53;4.32;;;3.50;;
55114;SDS011;41010;53.252;5.786;2023-06-19T02:17:20;5.57;;;3.83;;
55114;SDS011;41010;53.252;5.786;2023-06-19T02:19:47;5.30;;;3.80;;
55114;SDS011;41010;53.252;5.786;2023-06-19T02:22:14;5.13;;;3.55;;
55114;SDS011;41010;53.252;5.786;2023-06-19T02:24:42;5.05;;;3.38;;
55114;SDS011;41010;53.252;5.786;2023-06-19T02:27:09;5.55;;;3.42;;
55114;SDS011;41010;53.252;5.786;2023-06-19T02:29:37;5.28;;;3.75;;
55114;SDS011;41010;53.252;5.786;2023-06-19T02:32:06;5.13;;;3.40;;
55114;SDS011;41010;53.252;5.786;2023-06-19T02:34:33;5.50;;;3.38;;
55114;SDS011;41010;53.252;5.786;2023-06-19T02:37:00;4.32;;;3.35;;
55114;SDS011;41010;53.252;5.786;2023-06-19T02:39:28;4.85;;;3.47;;
55114;SDS011;41010;53.252;5.786;2023-06-19T02:41:56;3.45;;;2.97;;
55114;SDS011;41010;53.252;5.786;2023-06-19T02:44:23;5.80;;;4.03;;
55114;SDS011;41010;53.252;5.786;2023-06-19T02:46:50;4.40;;;3.28;;
55114;SDS011;41010;53.252;5.786;2023-06-19T02:49:19;8.93;;;3.80;;
55114;SDS011;41010;53.252;5.786;2023-06-19T02:51:46;6.10;;;4.00;;
55114;SDS011;41010;53.252;5.786;2023-06-19T02:54:13;5.05;;;3.65;;
55114;SDS011;41010;53.252;5.786;2023-06-19T02:56:40;6.25;;;3.85;;
55114;SDS011;41010;53.252;5.786;2023-06-19T02:59:07;6.20;;;4.00;;
55114;SDS011;41010;53.252;5.786;2023-06-19T03:01:35;7.03;;;4.50;;
55114;SDS011;41010;53.252;5.786;2023-06-19T03:04:02;6.20;;;4.07;;
55114;SDS011;41010;53.252;5.786;2023-06-19T03:06:31;6.18;;;3.67;;
55114;SDS011;41010;53.252;5.786;2023-06-19T03:09:05;6.20;;;3.67;;
55114;SDS011;41010;53.252;5.786;2023-06-19T03:11:37;6.18;;;3.95;;
55114;SDS011;41010;53.252;5.786;2023-06-19T03:14:05;6.53;;;3.58;;
55114;SDS011;41010;53.252;5.786;2023-06-19T03:16:33;4.93;;;3.17;;
55114;SDS011;41010;53.252;5.786;2023-06-19T03:19:00;5.97;;;4.30;;
55114;SDS011;41010;53.252;5.786;2023-06-19T03:21:27;5.72;;;3.92;;
55114;SDS011;41010;53.252;5.786;2023-06-19T03:23:56;6.05;;;3.88;;
55114;SDS011;41010;53.252;5.786;2023-06-19T03:26:23;4.70;;;3.88;;
55114;SDS011;41010;53.252;5.786;2023-06-19T03:28:51;6.20;;;4.05;;
55114;SDS011;41010;53.252;5.786;2023-06-19T03:31:18;6.53;;;4.00;;
55114;SDS011;41010;53.252;5.786;2023-06-19T03:33:46;6.90;;;3.83;;
55114;SDS011;41010;53.252;5.786;2023-06-19T03:36:13;5.57;;;3.92;;
55114;SDS011;41010;53.252;5.786;2023-06-19T03:38:40;6.68;;;3.75;;
55114;SDS011;41010;53.252;5.786;2023-06-19T03:41:09;9.95;;;3.70;;
55114;SDS011;41010;53.252;5.786;2023-06-19T03:43:37;5.13;;;3.60;;
55114;SDS011;41010;53.252;5.786;2023-06-19T03:46:04;4.22;;;3.28;;
55114;SDS011;41010;53.252;5.786;2023-06-19T03:48:31;5.15;;;3.20;;
55114;SDS011;41010;53.252;5.786;2023-06-19T03:50:59;4.15;;;3.13;;
55114;SDS011;41010;53.252;5.786;2023-06-19T03:53:26;5.35;;;3.22;;
55114;SDS011;41010;53.252;5.786;2023-06-19T03:55:54;5.90;;;3.00;;
55114;SDS011;41010;53.252;5.786;2023-06-19T03:58:22;4.13;;;2.80;;
55114;SDS011;41010;53.252;5.786;2023-06-19T04:00:51;4.18;;;2.40;;
55114;SDS011;41010;53.252;5.786;2023-06-19T04:03:18;4.65;;;2.40;;
55114;SDS011;41010;53.252;5.786;2023-06-19T04:05:45;5.22;;;2.28;;
55114;SDS011;41010;53.252;5.786;2023-06-19T04:08:12;2.85;;;2.00;;
55114;SDS011;41010;53.252;5.786;2023-06-19T04:10:40;2.90;;;1.77;;
55114;SDS011;41010;53.252;5.786;2023-06-19T04:13:07;3.10;;;1.92;;
55114;SDS011;41010;53.252;5.786;2023-06-19T04:15:35;3.65;;;1.92;;
55114;SDS011;41010;53.252;5.786;2023-06-19T04:18:03;2.63;;;1.67;;
55114;SDS011;41010;53.252;5.786;2023-06-19T04:20:30;2.25;;;1.70;;
55114;SDS011;41010;53.252;5.786;2023-06-19T04:22:58;3.08;;;1.55;;
55114;SDS011;41010;53.252;5.786;2023-06-19T04:25:26;2.97;;;1.98;;
55114;SDS011;41010;53.252;5.786;2023-06-19T04:27:53;1.90;;;1.40;;
55114;SDS011;41010;53.252;5.786;2023-06-19T04:30:20;2.17;;;1.45;;
55114;SDS011;41010;53.252;5.786;2023-06-19T04:32:49;2.58;;;1.70;;
55114;SDS011;41010;53.252;5.786;2023-06-19T04:35:18;3.63;;;1.77;;
55114;SDS011;41010;53.252;5.786;2023-06-19T04:37:45;2.63;;;1.60;;
55114;SDS011;41010;53.252;5.786;2023-06-19T04:40:13;1.83;;;1.35;;
55114;SDS011;41010;53.252;5.786;2023-06-19T04:42:41;2.08;;;1.48;;
55114;SDS011;41010;53.252;5.786;2023-06-19T04:45:08;2.63;;;1.73;;
55114;SDS011;41010;53.252;5.786;2023-06-19T04:47:36;3.88;;;1.92;;
55114;SDS011;41010;53.252;5.786;2023-06-19T04:50:06;3.80;;;1.90;;
55114;SDS011;41010;53.252;5.786;2023-06-19T04:52:34;2.95;;;2.20;;
55114;SDS011;41010;53.252;5.786;2023-06-19T04:55:01;2.70;;;2.20;;
55114;SDS011;41010;53.252;5.786;2023-06-19T04:57:28;2.78;;;2.33;;
55114;SDS011;41010;53.252;5.786;2023-06-19T04:59:55;2.90;;;2.45;;
55114;SDS011;41010;53.252;5.786;2023-06-19T05:02:23;3.22;;;2.80;;
55114;SDS011;41010;53.252;5.786;2023-06-19T05:04:50;3.70;;;2.55;;
55114;SDS011;41010;53.252;5.786;2023-06-19T05:07:18;4.47;;;2.92;;
55114;SDS011;41010;53.252;5.786;2023-06-19T05:09:46;4.28;;;2.90;;
55114;SDS011;41010;53.252;5.786;2023-06-19T05:12:13;4.80;;;3.08;;
55114;SDS011;41010;53.252;5.786;2023-06-19T05:14:40;5.30;;;3.40;;
55114;SDS011;41010;53.252;5.786;2023-06-19T05:17:08;5.35;;;3.50;;
55114;SDS011;41010;53.252;5.786;2023-06-19T05:19:35;5.05;;;3.70;;
55114;SDS011;41010;53.252;5.786;2023-06-19T05:22:02;4.95;;;3.50;;
55114;SDS011;41010;53.252;5.786;2023-06-19T05:24:31;5.63;;;3.97;;
55114;SDS011;41010;53.252;5.786;2023-06-19T05:26:58;6.60;;;3.95;;
55114;SDS011;41010;53.252;5.786;2023-06-19T05:29:25;6.50;;;4.57;;
55114;SDS011;41010;53.252;5.786;2023-06-19T05:31:52;8.68;;;6.03;;
55114;SDS011;41010;53.252;5.786;2023-06-19T05:34:19;9.45;;;5.82;;
55114;SDS011;41010;53.252;5.786;2023-06-19T05:36:47;8.88;;;5.75;;
55114;SDS011;41010;53.252;5.786;2023-06-19T05:39:15;10.38;;;6.95;;
55114;SDS011;41010;53.252;5.786;2023-06-19T05:41:45;13.48;;;7.93;;
55114;SDS011;41010;53.252;5.786;2023-06-19T05:44:12;12.82;;;7.82;;
55114;SDS011;41010;53.252;5.786;2023-06-19T05:46:41;14.27;;;9.35;;
55114;SDS011;41010;53.252;5.786;2023-06-19T05:49:08;14.23;;;10.02;;
55114;SDS011;41010;53.252;5.786;2023-06-19T05:51:35;16.52;;;12.25;;
55114;SDS011;41010;53.252;5.786;2023-06-19T05:54:02;17.45;;;12.88;;
55114;SDS011;41010;53.252;5.786;2023-06-19T05:56:30;17.58;;;13.40;;
55114;SDS011;41010;53.252;5.786;2023-06-19T05:58:59;19.63;;;13.75;;
55114;SDS011;41010;53.252;5.786;2023-06-19T06:01:27;17.70;;;14.07;;
55114;SDS011;41010;53.252;5.786;2023-06-19T06:03:54;17.27;;;12.52;;
55114;SDS011;41010;53.252;5.786;2023-06-19T06:06:22;15.93;;;11.60;;
55114;SDS011;41010;53.252;5.786;2023-06-19T06:08:50;16.05;;;11.88;;
55114;SDS011;41010;53.252;5.786;2023-06-19T06:11:18;18.98;;;12.57;;
55114;SDS011;41010;53.252;5.786;2023-06-19T06:13:45;15.77;;;11.57;;
55114;SDS011;41010;53.252;5.786;2023-06-19T06:16:13;19.45;;;12.65;;
55114;SDS011;41010;53.252;5.786;2023-06-19T06:18:41;18.80;;;12.65;;
55114;SDS011;41010;53.252;5.786;2023-06-19T06:21:08;19.23;;;13.30;;
55114;SDS011;41010;53.252;5.786;2023-06-19T06:23:37;19.50;;;13.90;;
55114;SDS011;41010;53.252;5.786;2023-06-19T06:26:05;20.98;;;14.20;;
55114;SDS011;41010;53.252;5.786;2023-06-19T06:28:32;20.95;;;13.68;;
55114;SDS011;41010;53.252;5.786;2023-06-19T06:30:59;18.27;;;13.68;;
55114;SDS011;41010;53.252;5.786;2023-06-19T06:33:28;19.65;;;14.10;;
55114;SDS011;41010;53.252;5.786;2023-06-19T06:35:57;17.95;;;12.45;;
55114;SDS011;41010;53.252;5.786;2023-06-19T06:38:24;21.80;;;13.98;;
55114;SDS011;41010;53.252;5.786;2023-06-19T06:40:51;21.23;;;13.95;;
55114;SDS011;41010;53.252;5.786;2023-06-19T06:43:19;21.33;;;13.93;;
55114;SDS011;41010;53.252;5.786;2023-06-19T06:45:46;20.15;;;13.43;;
55114;SDS011;41010;53.252;5.786;2023-06-19T06:48:13;23.75;;;14.93;;
55114;SDS011;41010;53.252;5.786;2023-06-19T06:50:42;25.90;;;12.85;;
55114;SDS011;41010;53.252;5.786;2023-06-19T06:53:09;25.92;;;14.65;;
55114;SDS011;41010;53.252;5.786;2023-06-19T06:55:37;24.92;;;14.55;;
55114;SDS011;41010;53.252;5.786;2023-06-19T06:58:04;26.33;;;15.30;;
55114;SDS011;41010;53.252;5.786;2023-06-19T07:00:31;24.58;;;14.88;;
55114;SDS011;41010;53.252;5.786;2023-06-19T07:02:58;26.70;;;14.98;;
55114;SDS011;41010;53.252;5.786;2023-06-19T07:05:26;23.27;;;13.98;;
55114;SDS011;41010;53.252;5.786;2023-06-19T07:07:56;22.60;;;13.32;;
55114;SDS011;41010;53.252;5.786;2023-06-19T07:10:23;22.42;;;12.07;;
55114;SDS011;41010;53.252;5.786;2023-06-19T07:12:50;24.30;;;13.57;;
55114;SDS011;41010;53.252;5.786;2023-06-19T07:15:18;24.77;;;14.02;;
55114;SDS011;41010;53.252;5.786;2023-06-19T07:17:45;21.73;;;13.25;;
55114;SDS011;41010;53.252;5.786;2023-06-19T07:20:12;25.77;;;14.30;;
55114;SDS011;41010;53.252;5.786;2023-06-19T07:22:39;27.10;;;14.10;;
55114;SDS011;41010;53.252;5.786;2023-06-19T07:25:09;26.38;;;13.95;;
55114;SDS011;41010;53.252;5.786;2023-06-19T07:27:37;25.00;;;13.82;;
55114;SDS011;41010;53.252;5.786;2023-06-19T07:30:04;25.50;;;13.95;;
55114;SDS011;41010;53.252;5.786;2023-06-19T07:32:32;26.33;;;14.00;;
55114;SDS011;41010;53.252;5.786;2023-06-19T07:34:59;26.45;;;14.43;;
55114;SDS011;41010;53.252;5.786;2023-06-19T07:37:26;25.55;;;13.90;;
55114;SDS011;41010;53.252;5.786;2023-06-19T07:39:54;26.00;;;13.35;;
55114;SDS011;41010;53.252;5.786;2023-06-19T07:42:22;25.00;;;13.40;;
55114;SDS011;41010;53.252;5.786;2023-06-19T07:44:50;23.20;;;13.40;;
55114;SDS011;41010;53.252;5.786;2023-06-19T07:47:17;22.45;;;11.57;;
55114;SDS011;41010;53.252;5.786;2023-06-19T07:49:45;17.42;;;10.88;;
55114;SDS011;41010;53.252;5.786;2023-06-19T07:52:13;18.17;;;9.57;;
55114;SDS011;41010;53.252;5.786;2023-06-19T07:54:50;16.95;;;10.32;;
55114;SDS011;41010;53.252;5.786;2023-06-19T07:57:17;17.17;;;8.40;;
55114;SDS011;41010;53.252;5.786;2023-06-19T07:59:46;11.70;;;7.90;;
55114;SDS011;41010;53.252;5.786;2023-06-19T08:02:14;13.20;;;7.88;;
55114;SDS011;41010;53.252;5.786;2023-06-19T08:04:41;12.32;;;7.63;;
55114;SDS011;41010;53.252;5.786;2023-06-19T08:07:09;11.65;;;7.80;;
55114;SDS011;41010;53.252;5.786;2023-06-19T08:09:36;9.98;;;6.60;;
55114;SDS011;41010;53.252;5.786;2023-06-19T08:12:03;10.70;;;6.78;;
55114;SDS011;41010;53.252;5.786;2023-06-19T08:14:31;13.57;;;7.50;;
55114;SDS011;41010;53.252;5.786;2023-06-19T08:16:59;11.88;;;7.32;;
55114;SDS011;41010;53.252;5.786;2023-06-19T08:19:26;14.20;;;8.18;;
55114;SDS011;41010;53.252;5.786;2023-06-19T08:21:54;15.30;;;8.18;;
55114;SDS011;41010;53.252;5.786;2023-06-19T08:24:21;11.23;;;8.02;;
55114;SDS011;41010;53.252;5.786;2023-06-19T08:26:48;14.80;;;8.55;;
55114;SDS011;41010;53.252;5.786;2023-06-19T08:29:17;14.40;;;8.63;;
55114;SDS011;41010;53.252;5.786;2023-06-19T08:31:44;13.50;;;8.52;;
55114;SDS011;41010;53.252;5.786;2023-06-19T08:34:13;15.10;;;9.02;;
55114;SDS011;41010;53.252;5.786;2023-06-19T08:36:40;13.10;;;8.43;;
55114;SDS011;41010;53.252;5.786;2023-06-19T08:39:07;14.02;;;8.48;;
55114;SDS011;41010;53.252;5.786;2023-06-19T08:41:36;12.00;;;8.35;;
55114;SDS011;41010;53.252;5.786;2023-06-19T08:44:03;14.98;;;8.77;;
55114;SDS011;41010;53.252;5.786;2023-06-19T08:46:31;13.70;;;8.00;;
55114;SDS011;41010;53.252;5.786;2023-06-19T08:48:59;11.45;;;7.65;;
55114;SDS011;41010;53.252;5.786;2023-06-19T08:51:29;11.43;;;7.38;;
55114;SDS011;41010;53.252;5.786;2023-06-19T08:54:00;12.02;;;7.10;;
55114;SDS011;41010;53.252;5.786;2023-06-19T08:56:28;11.10;;;7.20;;
55114;SDS011;41010;53.252;5.786;2023-06-19T08:59:07;9.65;;;6.97;;
55114;SDS011;41010;53.252;5.786;2023-06-19T09:01:34;10.70;;;7.30;;
55114;SDS011;41010;53.252;5.786;2023-06-19T09:04:07;14.35;;;8.15;;
55114;SDS011;41010;53.252;5.786;2023-06-19T09:09:05;13.57;;;7.28;;
55114;SDS011;41010;53.252;5.786;2023-06-19T09:11:36;10.57;;;6.60;;
55114;SDS011;41010;53.252;5.786;2023-06-19T09:14:08;10.67;;;6.37;;
55114;SDS011;41010;53.252;5.786;2023-06-19T09:16:36;14.10;;;7.22;;
55114;SDS011;41010;53.252;5.786;2023-06-19T09:19:04;12.98;;;7.47;;
55114;SDS011;41010;53.252;5.786;2023-06-19T09:21:31;13.20;;;7.20;;
55114;SDS011;41010;53.252;5.786;2023-06-19T09:24:02;11.85;;;6.68;;
55114;SDS011;41010;53.252;5.786;2023-06-19T09:26:31;11.80;;;7.70;;
55114;SDS011;41010;53.252;5.786;2023-06-19T09:28:58;15.27;;;7.00;;
55114;SDS011;41010;53.252;5.786;2023-06-19T09:31:31;10.38;;;6.80;;
55114;SDS011;41010;53.252;5.786;2023-06-19T09:33:59;11.32;;;6.35;;
55114;SDS011;41010;53.252;5.786;2023-06-19T09:36:26;12.07;;;7.13;;
55114;SDS011;41010;53.252;5.786;2023-06-19T09:38:54;10.15;;;6.57;;
55114;SDS011;41010;53.252;5.786;2023-06-19T09:41:21;11.15;;;6.97;;
55114;SDS011;41010;53.252;5.786;2023-06-19T09:43:53;10.55;;;6.97;;
55114;SDS011;41010;53.252;5.786;2023-06-19T09:46:22;11.50;;;7.55;;
55114;SDS011;41010;53.252;5.786;2023-06-19T09:48:53;12.38;;;7.80;;
55114;SDS011;41010;53.252;5.786;2023-06-19T09:51:30;12.27;;;7.65;;
55114;SDS011;41010;53.252;5.786;2023-06-19T09:53:58;12.85;;;7.45;;
55114;SDS011;41010;53.252;5.786;2023-06-19T09:56:27;13.93;;;7.43;;
55114;SDS011;41010;53.252;5.786;2023-06-19T09:58:56;16.23;;;7.70;;
55114;SDS011;41010;53.252;5.786;2023-06-19T10:01:25;13.95;;;7.95;;
55114;SDS011;41010;53.252;5.786;2023-06-19T10:04:01;13.07;;;7.90;;
55114;SDS011;41010;53.252;5.786;2023-06-19T10:06:28;13.32;;;7.97;;
55114;SDS011;41010;53.252;5.786;2023-06-19T10:08:56;16.13;;;7.85;;
55114;SDS011;41010;53.252;5.786;2023-06-19T10:11:43;13.20;;;7.45;;
55114;SDS011;41010;53.252;5.786;2023-06-19T10:14:12;12.73;;;7.90;;
55114;SDS011;41010;53.252;5.786;2023-06-19T10:16:43;12.43;;;7.80;;
55114;SDS011;41010;53.252;5.786;2023-06-19T10:19:13;10.32;;;6.63;;
55114;SDS011;41010;53.252;5.786;2023-06-19T10:21:45;11.10;;;7.07;;
55114;SDS011;41010;53.252;5.786;2023-06-19T10:24:16;12.55;;;7.40;;
55114;SDS011;41010;53.252;5.786;2023-06-19T10:26:55;13.70;;;7.75;;
55114;SDS011;41010;53.252;5.786;2023-06-19T10:29:24;14.10;;;6.97;;
55114;SDS011;41010;53.252;5.786;2023-06-19T10:31:52;13.60;;;7.53;;
55114;SDS011;41010;53.252;5.786;2023-06-19T10:34:19;17.67;;;8.40;;
55114;SDS011;41010;53.252;5.786;2023-06-19T10:36:46;14.63;;;8.50;;
55114;SDS011;41010;53.252;5.786;2023-06-19T10:39:14;14.57;;;8.55;;
55114;SDS011;41010;53.252;5.786;2023-06-19T10:41:41;16.58;;;9.07;;
55114;SDS011;41010;53.252;5.786;2023-06-19T10:44:08;12.93;;;8.60;;
55114;SDS011;41010;53.252;5.786;2023-06-19T10:46:39;16.27;;;10.07;;
55114;SDS011;41010;53.252;5.786;2023-06-19T10:49:07;16.80;;;9.77;;
55114;SDS011;41010;53.252;5.786;2023-06-19T10:51:35;16.40;;;10.40;;
55114;SDS011;41010;53.252;5.786;2023-06-19T10:54:03;17.17;;;10.52;;
55114;SDS011;41010;53.252;5.786;2023-06-19T10:56:30;18.48;;;10.75;;
55114;SDS011;41010;53.252;5.786;2023-06-19T10:58:58;16.65;;;10.68;;
55114;SDS011;41010;53.252;5.786;2023-06-19T11:01:35;17.17;;;10.18;;
55114;SDS011;41010;53.252;5.786;2023-06-19T11:04:04;15.27;;;10.35;;
55114;SDS011;41010;53.252;5.786;2023-06-19T11:06:31;15.95;;;10.23;;
55114;SDS011;41010;53.252;5.786;2023-06-19T11:08:59;14.80;;;10.35;;
55114;SDS011;41010;53.252;5.786;2023-06-19T11:11:35;15.65;;;9.30;;
55114;SDS011;41010;53.252;5.786;2023-06-19T11:14:02;15.65;;;9.40;;
55114;SDS011;41010;53.252;5.786;2023-06-19T11:16:29;14.13;;;8.32;;
55114;SDS011;41010;53.252;5.786;2023-06-19T11:18:57;12.00;;;7.93;;
55114;SDS011;41010;53.252;5.786;2023-06-19T11:21:30;11.20;;;7.22;;
55114;SDS011;41010;53.252;5.786;2023-06-19T11:23:58;13.18;;;6.88;;
55114;SDS011;41010;53.252;5.786;2023-06-19T11:26:26;10.40;;;6.18;;
55114;SDS011;41010;53.252;5.786;2023-06-19T11:28:53;9.50;;;6.35;;
55114;SDS011;41010;53.252;5.786;2023-06-19T11:31:24;11.07;;;6.93;;
55114;SDS011;41010;53.252;5.786;2023-06-19T11:33:55;9.15;;;6.40;;
55114;SDS011;41010;53.252;5.786;2023-06-19T11:36:23;10.20;;;6.78;;
55114;SDS011;41010;53.252;5.786;2023-06-19T11:38:52;9.70;;;5.93;;
55114;SDS011;41010;53.252;5.786;2023-06-19T11:41:26;7.72;;;5.78;;
55114;SDS011;41010;53.252;5.786;2023-06-19T11:43:59;8.60;;;5.95;;
55114;SDS011;41010;53.252;5.786;2023-06-19T11:46:30;9.20;;;6.32;;
55114;SDS011;41010;53.252;5.786;2023-06-19T11:49:06;9.77;;;5.80;;
55114;SDS011;41010;53.252;5.786;2023-06-19T11:51:34;9.70;;;5.70;;
55114;SDS011;41010;53.252;5.786;2023-06-19T11:54:04;7.13;;;4.65;;
55114;SDS011;41010;53.252;5.786;2023-06-19T11:56:32;6.70;;;4.50;;
55114;SDS011;41010;53.252;5.786;2023-06-19T11:59:00;7.03;;;4.80;;
55114;SDS011;41010;53.252;5.786;2023-06-19T12:01:28;5.75;;;4.22;;
55114;SDS011;41010;53.252;5.786;2023-06-19T12:03:56;5.68;;;4.43;;
55114;SDS011;41010;53.252;5.786;2023-06-19T12:06:23;5.22;;;3.92;;
55114;SDS011;41010;53.252;5.786;2023-06-19T12:08:51;6.70;;;4.38;;
55114;SDS011;41010;53.252;5.786;2023-06-19T12:11:19;5.82;;;3.90;;
55114;SDS011;41010;53.252;5.786;2023-06-19T12:13:47;4.88;;;3.95;;
55114;SDS011;41010;53.252;5.786;2023-06-19T12:16:14;4.47;;;3.10;;
55114;SDS011;41010;53.252;5.786;2023-06-19T12:18:41;5.72;;;2.88;;
55114;SDS011;41010;53.252;5.786;2023-06-19T12:21:09;4.43;;;3.20;;
55114;SDS011;41010;53.252;5.786;2023-06-19T12:23:36;4.45;;;3.70;;
55114;SDS011;41010;53.252;5.786;2023-06-19T12:26:03;3.92;;;3.17;;
55114;SDS011;41010;53.252;5.786;2023-06-19T12:28:32;3.90;;;3.10;;
55114;SDS011;41010;53.252;5.786;2023-06-19T12:30:59;5.05;;;3.35;;
55114;SDS011;41010;53.252;5.786;2023-06-19T12:33:28;3.47;;;2.90;;
55114;SDS011;41010;53.252;5.786;2023-06-19T12:35:58;4.15;;;3.10;;
55114;SDS011;41010;53.252;5.786;2023-06-19T12:38:26;4.38;;;3.10;;
55114;SDS011;41010;53.252;5.786;2023-06-19T12:40:53;9.18;;;3.63;;
55114;SDS011;41010;53.252;5.786;2023-06-19T12:43:21;5.03;;;3.80;;
55114;SDS011;41010;53.252;5.786;2023-06-19T12:45:49;5.13;;;3.40;;
55114;SDS011;41010;53.252;5.786;2023-06-19T12:48:16;5.28;;;3.55;;
55114;SDS011;41010;53.252;5.786;2023-06-19T12:50:44;10.75;;;4.30;;
55114;SDS011;41010;53.252;5.786;2023-06-19T12:53:11;7.78;;;3.95;;
55114;SDS011;41010;53.252;5.786;2023-06-19T12:55:38;4.32;;;3.63;;
55114;SDS011;41010;53.252;5.786;2023-06-19T12:58:05;5.85;;;3.42;;
55114;SDS011;41010;53.252;5.786;2023-06-19T13:00:33;6.45;;;4.32;;
55114;SDS011;41010;53.252;5.786;2023-06-19T13:03:01;6.00;;;4.90;;
55114;SDS011;41010;53.252;5.786;2023-06-19T13:05:29;6.15;;;3.92;;
55114;SDS011;41010;53.252;5.786;2023-06-19T13:07:56;6.25;;;3.65;;
55114;SDS011;41010;53.252;5.786;2023-06-19T13:10:23;4.50;;;3.10;;
55114;SDS011;41010;53.252;5.786;2023-06-19T13:12:50;5.30;;;3.28;;
55114;SDS011;41010;53.252;5.786;2023-06-19T13:15:17;7.20;;;3.92;;
55114;SDS011;41010;53.252;5.786;2023-06-19T13:17:45;4.85;;;3.40;;
55114;SDS011;41010;53.252;5.786;2023-06-19T13:20:13;4.72;;;3.38;;
55114;SDS011;41010;53.252;5.786;2023-06-19T13:22:41;7.47;;;3.10;;
55114;SDS011;41010;53.252;5.786;2023-06-19T13:25:08;8.15;;;4.07;;
55114;SDS011;41010;53.252;5.786;2023-06-19T13:27:35;5.70;;;3.55;;
55114;SDS011;41010;53.252;5.786;2023-06-19T13:30:03;5.70;;;4.00;;
55114;SDS011;41010;53.252;5.786;2023-06-19T13:32:30;4.78;;;3.20;;
55114;SDS011;41010;53.252;5.786;2023-06-19T13:34:57;6.32;;;3.50;;
55114;SDS011;41010;53.252;5.786;2023-06-19T13:37:26;6.55;;;3.97;;
55114;SDS011;41010;53.252;5.786;2023-06-19T13:39:53;7.43;;;3.28;;
55114;SDS011;41010;53.252;5.786;2023-06-19T13:42:21;6.93;;;3.65;;
55114;SDS011;41010;53.252;5.786;2023-06-19T13:44:48;3.90;;;3.10;;
55114;SDS011;41010;53.252;5.786;2023-06-19T13:47:15;4.28;;;3.45;;
55114;SDS011;41010;53.252;5.786;2023-06-19T13:49:42;3.83;;;2.97;;
55114;SDS011;41010;53.252;5.786;2023-06-19T13:52:10;4.13;;;2.92;;
55114;SDS011;41010;53.252;5.786;2023-06-19T13:54:38;3.97;;;3.00;;
55114;SDS011;41010;53.252;5.786;2023-06-19T13:57:06;5.65;;;3.70;;
55114;SDS011;41010;53.252;5.786;2023-06-19T13:59:33;6.13;;;3.25;;
55114;SDS011;41010;53.252;5.786;2023-06-19T14:02:01;4.75;;;3.50;;
55114;SDS011;41010;53.252;5.786;2023-06-19T14:04:28;4.57;;;2.95;;
55114;SDS011;41010;53.252;5.786;2023-06-19T14:06:56;4.55;;;2.88;;
55114;SDS011;41010;53.252;5.786;2023-06-19T14:09:24;6.00;;;3.60;;
55114;SDS011;41010;53.252;5.786;2023-06-19T14:11:52;4.60;;;3.45;;
55114;SDS011;41010;53.252;5.786;2023-06-19T14:14:19;6.45;;;3.28;;
55114;SDS011;41010;53.252;5.786;2023-06-19T14:16:47;5.22;;;3.25;;
55114;SDS011;41010;53.252;5.786;2023-06-19T14:19:14;3.78;;;3.05;;
55114;SDS011;41010;53.252;5.786;2023-06-19T14:21:41;6.03;;;3.35;;
55114;SDS011;41010;53.252;5.786;2023-06-19T14:24:09;5.30;;;3.25;;
55114;SDS011;41010;53.252;5.786;2023-06-19T14:26:36;4.40;;;3.00;;
55114;SDS011;41010;53.252;5.786;2023-06-19T14:29:04;3.92;;;3.20;;
55114;SDS011;41010;53.252;5.786;2023-06-19T14:31:33;4.00;;;3.08;;
55114;SDS011;41010;53.252;5.786;2023-06-19T14:34:00;5.38;;;3.13;;
55114;SDS011;41010;53.252;5.786;2023-06-19T14:36:27;5.13;;;3.25;;
55114;SDS011;41010;53.252;5.786;2023-06-19T14:38:55;4.47;;;3.30;;
55114;SDS011;41010;53.252;5.786;2023-06-19T14:41:22;4.30;;;3.05;;
55114;SDS011;41010;53.252;5.786;2023-06-19T14:43:49;4.07;;;3.15;;
55114;SDS011;41010;53.252;5.786;2023-06-19T14:46:18;4.20;;;3.08;;
55114;SDS011;41010;53.252;5.786;2023-06-19T14:48:45;4.70;;;3.20;;